Time;durP1;ratioP1;P1;durP2;ratioP2;P2;SDS_P1;SDS_P2;PMS_P1;PMS_P2;Temp;Humidity;BMP_temperature;BMP_pressure;BME280_temperature;BME280_humidity;BME280_pressure;Samples;Min_cycle;Max_cycle;Signal;HPM_P1;HPM_P2
2023/10/22 00:00:44;;;;;;;26.60;24.40;;;12.90;99.90;;;;;;4864615;29;20364;-48
2023/10/22 00:03:10;;;;;;;26.63;24.63;;;13.00;99.90;;;;;;4866751;29;20432;-50
2023/10/22 00:05:36;;;;;;;26.90;24.60;;;13.00;99.90;;;;;;4866421;29;20424;-47
2023/10/22 00:08:02;;;;;;;27.47;25.27;;;13.00;99.90;;;;;;4862730;29;21077;-49
2023/10/22 00:10:27;;;;;;;26.67;24.40;;;13.00;99.90;;;;;;4857412;29;20452;-46
2023/10/22 00:12:53;;;;;;;27.03;24.77;;;12.90;99.90;;;;;;4863453;29;20432;-48
2023/10/22 00:15:24;;;;;;;26.60;24.60;;;12.90;99.90;;;;;;4855671;29;20488;-51
2023/10/22 00:17:50;;;;;;;27.30;25.20;;;13.00;99.90;;;;;;4857512;29;20806;-48
2023/10/22 00:20:16;;;;;;;26.10;24.10;;;12.90;99.90;;;;;;4851727;29;20477;-48
2023/10/22 00:22:41;;;;;;;27.77;25.47;;;12.90;99.90;;;;;;4866339;29;20188;-45
2023/10/22 00:25:08;;;;;;;27.97;25.47;;;12.90;99.90;;;;;;4862415;29;20203;-45
2023/10/22 00:27:34;;;;;;;26.30;24.13;;;12.80;99.90;;;;;;4855403;29;21033;-45
2023/10/22 00:30:00;;;;;;;26.93;24.60;;;12.80;99.90;;;;;;4835525;29;20544;-46
2023/10/22 00:32:26;;;;;;;25.93;24.10;;;12.80;99.90;;;;;;4849222;29;20309;-50
2023/10/22 00:34:51;;;;;;;27.27;25.07;;;12.80;99.90;;;;;;4866733;29;20746;-46
2023/10/22 00:37:17;;;;;;;27.60;25.20;;;12.90;99.90;;;;;;4861916;29;20425;-45
2023/10/22 00:39:43;;;;;;;27.03;24.87;;;12.80;99.90;;;;;;4852211;29;20224;-49
2023/10/22 00:42:09;;;;;;;26.30;24.30;;;12.90;99.90;;;;;;4864120;29;20180;-45
2023/10/22 00:44:35;;;;;;;27.07;24.93;;;12.90;99.90;;;;;;4862617;29;20210;-52
2023/10/22 00:47:03;;;;;;;27.30;24.93;;;12.80;99.90;;;;;;4864562;29;20489;-48
2023/10/22 00:49:29;;;;;;;25.47;23.47;;;12.80;99.90;;;;;;4857844;29;20563;-47
2023/10/22 00:51:55;;;;;;;25.97;23.93;;;12.80;99.90;;;;;;4850777;29;20441;-46
2023/10/22 00:54:22;;;;;;;26.30;24.20;;;12.80;99.90;;;;;;4865614;29;20199;-47
2023/10/22 00:56:48;;;;;;;26.37;24.07;;;12.80;99.90;;;;;;4852922;29;20485;-48
2023/10/22 00:59:14;;;;;;;26.43;24.33;;;12.90;99.90;;;;;;4853207;29;20946;-46
2023/10/22 01:01:40;;;;;;;26.80;24.70;;;12.80;99.90;;;;;;4857689;29;20514;-49
2023/10/22 01:04:07;;;;;;;26.30;24.20;;;12.80;99.90;;;;;;4863450;29;20440;-47
2023/10/22 01:06:34;;;;;;;25.60;23.60;;;12.80;99.90;;;;;;4854292;29;20580;-49
2023/10/22 01:09:00;;;;;;;25.67;23.70;;;12.80;99.90;;;;;;4854258;29;20943;-48
2023/10/22 01:11:26;;;;;;;25.93;23.93;;;12.80;99.90;;;;;;4848105;29;20491;-50
2023/10/22 01:13:52;;;;;;;24.90;23.00;;;12.80;99.90;;;;;;4857837;29;20442;-46
2023/10/22 01:16:17;;;;;;;25.23;23.23;;;12.80;99.90;;;;;;4851048;29;20192;-48
2023/10/22 01:18:43;;;;;;;25.60;23.60;;;12.90;99.90;;;;;;4848392;29;20213;-49
2023/10/22 01:21:09;;;;;;;27.17;25.07;;;12.80;99.90;;;;;;4853553;29;20276;-47
2023/10/22 01:23:38;;;;;;;25.53;23.60;;;12.80;99.90;;;;;;4855620;29;20682;-53
2023/10/22 01:26:06;;;;;;;25.17;23.20;;;12.90;99.90;;;;;;4854640;29;20292;-47
2023/10/22 01:28:32;;;;;;;25.10;23.07;;;12.90;99.90;;;;;;4854435;29;20531;-45
2023/10/22 01:30:58;;;;;;;24.63;22.73;;;12.90;99.90;;;;;;4854386;29;21278;-45
2023/10/22 01:33:24;;;;;;;25.23;23.33;;;12.90;99.90;;;;;;4850531;29;20440;-48
2023/10/22 01:35:50;;;;;;;24.40;22.40;;;13.00;99.90;;;;;;4860651;29;20263;-48
2023/10/22 01:38:16;;;;;;;25.00;22.80;;;13.00;99.90;;;;;;4854921;29;20437;-50
2023/10/22 01:40:42;;;;;;;23.93;22.23;;;13.00;99.90;;;;;;4853826;29;20541;-48
2023/10/22 01:43:08;;;;;;;25.30;23.40;;;12.90;99.90;;;;;;4850352;29;20295;-49
2023/10/22 01:45:34;;;;;;;24.03;22.13;;;12.90;99.90;;;;;;4856171;29;21076;-49
2023/10/22 01:47:59;;;;;;;23.97;22.17;;;13.00;99.90;;;;;;4849583;29;20522;-45
2023/10/22 01:50:25;;;;;;;23.37;21.47;;;13.00;99.90;;;;;;4858939;29;20947;-48
2023/10/22 01:52:51;;;;;;;22.77;21.00;;;13.00;99.90;;;;;;4853194;29;20189;-49
2023/10/22 01:55:17;;;;;;;22.67;20.87;;;13.00;99.90;;;;;;4849831;29;20199;-49
2023/10/22 01:57:43;;;;;;;22.00;20.40;;;13.00;99.90;;;;;;4840781;29;20243;-47
2023/10/22 02:00:12;;;;;;;21.97;20.37;;;13.00;99.90;;;;;;4858860;29;20483;-49
2023/10/22 02:02:39;;;;;;;21.23;19.43;;;13.00;99.90;;;;;;4853541;29;20660;-47
2023/10/22 02:05:05;;;;;;;20.00;18.60;;;13.00;99.90;;;;;;4857236;29;20461;-46
2023/10/22 02:07:31;;;;;;;20.37;18.87;;;13.00;99.90;;;;;;4855755;29;20440;-49
2023/10/22 02:10:34;;;;;;;20.07;18.70;;;13.00;99.90;;;;;;4857745;29;20438;-46
2023/10/22 02:13:00;;;;;;;21.30;19.50;;;13.00;99.90;;;;;;4858144;29;20240;-48
2023/10/22 02:15:26;;;;;;;19.50;18.20;;;13.00;99.90;;;;;;4859068;29;20833;-48
2023/10/22 02:17:52;;;;;;;19.40;18.10;;;13.00;99.90;;;;;;4861293;29;20196;-49
2023/10/22 02:20:18;;;;;;;19.17;17.97;;;13.00;99.90;;;;;;4869139;29;20474;-47
2023/10/22 02:22:44;;;;;;;19.20;17.80;;;12.90;99.90;;;;;;4863210;29;20441;-51
2023/10/22 02:25:10;;;;;;;19.53;18.13;;;13.00;99.90;;;;;;4851028;29;20204;-46
2023/10/22 02:27:36;;;;;;;20.67;19.20;;;13.00;99.90;;;;;;4863379;29;20622;-45
2023/10/22 02:30:02;;;;;;;18.23;17.03;;;13.00;99.90;;;;;;4869209;29;20538;-48
2023/10/22 02:32:27;;;;;;;18.30;17.10;;;12.90;99.90;;;;;;4857651;29;20205;-46
2023/10/22 02:34:53;;;;;;;17.30;16.20;;;13.00;99.90;;;;;;4864555;29;20974;-46
2023/10/22 02:37:19;;;;;;;18.70;17.40;;;13.00;99.90;;;;;;4858758;29;20204;-49
2023/10/22 02:39:45;;;;;;;17.90;16.80;;;12.90;99.90;;;;;;4866182;29;20208;-48
2023/10/22 02:42:11;;;;;;;17.80;16.50;;;12.90;99.90;;;;;;4856976;29;20999;-47
2023/10/22 02:44:36;;;;;;;17.90;16.57;;;12.90;99.90;;;;;;4851943;29;20232;-50
2023/10/22 02:47:02;;;;;;;18.03;16.83;;;12.90;99.90;;;;;;4863050;29;20195;-48
2023/10/22 02:49:30;;;;;;;18.20;16.97;;;12.90;99.90;;;;;;4864465;29;20865;-49
2023/10/22 02:51:55;;;;;;;16.93;15.93;;;12.90;99.90;;;;;;4854324;29;20510;-46
2023/10/22 02:54:21;;;;;;;16.53;15.40;;;12.80;99.90;;;;;;4858120;29;20536;-47
2023/10/22 02:56:47;;;;;;;17.83;16.63;;;12.90;99.90;;;;;;4859411;29;20192;-42
2023/10/22 02:59:13;;;;;;;17.07;15.90;;;12.90;99.90;;;;;;4861710;29;20469;-48
2023/10/22 03:01:38;;;;;;;17.47;16.20;;;12.90;99.90;;;;;;4868501;29;20212;-46
2023/10/22 03:04:04;;;;;;;17.20;16.10;;;12.80;99.90;;;;;;4856003;29;20224;-52
2023/10/22 03:06:30;;;;;;;17.10;16.00;;;12.90;99.90;;;;;;4837757;29;20664;-48
2023/10/22 03:08:55;;;;;;;17.10;16.00;;;12.90;99.90;;;;;;4858124;29;20200;-44
2023/10/22 03:11:21;;;;;;;16.73;15.73;;;12.80;99.90;;;;;;4857935;29;20307;-47
2023/10/22 03:13:48;;;;;;;16.60;15.60;;;12.80;99.90;;;;;;4857168;29;20299;-46
2023/10/22 03:16:17;;;;;;;17.07;16.00;;;12.80;99.90;;;;;;4850079;29;20905;-45
2023/10/22 03:18:44;;;;;;;15.83;14.83;;;12.70;99.90;;;;;;4855619;29;20457;-51
2023/10/22 03:21:20;;;;;;;16.77;15.60;;;12.70;99.90;;;;;;4868109;29;20480;-51
2023/10/22 03:23:47;;;;;;;16.10;15.10;;;12.70;99.90;;;;;;4856911;29;20421;-49
2023/10/22 03:26:17;;;;;;;16.50;15.50;;;12.70;99.90;;;;;;4855043;29;20437;-45
2023/10/22 03:28:44;;;;;;;15.50;14.70;;;12.60;99.90;;;;;;4837262;29;20440;-49
2023/10/22 03:31:09;;;;;;;17.10;16.00;;;12.60;99.90;;;;;;4868186;29;20436;-47
2023/10/22 03:33:35;;;;;;;16.80;15.70;;;12.70;99.90;;;;;;4866255;29;20420;-49
2023/10/22 03:36:03;;;;;;;16.67;15.77;;;12.60;99.90;;;;;;4860421;29;20175;-46
2023/10/22 03:38:29;;;;;;;16.57;15.57;;;12.70;99.90;;;;;;4865545;29;21119;-51
2023/10/22 03:41:03;;;;;;;17.73;16.60;;;12.60;99.90;;;;;;4868014;29;20424;-46
2023/10/22 03:43:30;;;;;;;17.70;16.60;;;12.60;99.90;;;;;;4864688;29;20442;-47
2023/10/22 03:45:57;;;;;;;16.53;15.53;;;12.60;99.90;;;;;;4859797;29;20436;-50
2023/10/22 03:48:23;;;;;;;17.80;16.60;;;12.60;99.90;;;;;;4859499;29;20433;-40
2023/10/22 03:50:48;;;;;;;16.70;15.70;;;12.60;99.90;;;;;;4862114;29;20772;-49
2023/10/22 03:53:14;;;;;;;17.27;16.20;;;12.60;99.90;;;;;;4857839;29;20443;-46
2023/10/22 03:55:40;;;;;;;17.63;16.53;;;12.60;99.90;;;;;;4854275;29;20599;-46
2023/10/22 03:58:06;;;;;;;17.73;16.63;;;12.50;99.90;;;;;;4852437;29;20188;-51
2023/10/22 04:00:32;;;;;;;17.30;16.30;;;12.60;99.90;;;;;;4849639;29;20212;-46
2023/10/22 04:02:58;;;;;;;18.20;17.00;;;12.60;99.90;;;;;;4865511;29;20413;-51
2023/10/22 04:05:24;;;;;;;18.50;17.20;;;12.60;99.90;;;;;;4852100;29;20589;-49
2023/10/22 04:07:50;;;;;;;20.37;18.97;;;12.60;99.90;;;;;;4863242;29;20448;-52
2023/10/22 04:10:15;;;;;;;17.83;16.70;;;12.60;99.90;;;;;;4863918;29;20663;-46
2023/10/22 04:12:42;;;;;;;17.60;16.60;;;12.50;99.90;;;;;;4866520;29;20232;-53
2023/10/22 04:15:08;;;;;;;18.73;17.40;;;12.50;99.90;;;;;;4857599;29;20452;-48
2023/10/22 04:17:34;;;;;;;19.43;18.03;;;12.50;99.90;;;;;;4853920;29;20451;-48
2023/10/22 04:19:59;;;;;;;18.90;17.70;;;12.50;99.90;;;;;;4861725;29;20496;-46
2023/10/22 04:22:26;;;;;;;18.47;17.17;;;12.50;99.90;;;;;;4841876;29;20353;-47
2023/10/22 04:24:52;;;;;;;19.53;18.17;;;12.50;99.90;;;;;;4856682;29;20220;-45
2023/10/22 04:27:18;;;;;;;19.33;18.03;;;12.40;99.90;;;;;;4862804;29;20455;-50
2023/10/22 04:29:46;;;;;;;20.23;18.90;;;12.40;99.90;;;;;;4853904;29;20452;-52
2023/10/22 04:32:16;;;;;;;20.33;18.73;;;12.40;99.90;;;;;;4851499;29;20180;-47
2023/10/22 04:34:42;;;;;;;19.70;18.30;;;12.40;99.90;;;;;;4860811;29;20958;-47
2023/10/22 04:37:09;;;;;;;19.10;17.70;;;12.40;99.90;;;;;;4842059;29;20456;-49
2023/10/22 04:39:38;;;;;;;20.77;19.30;;;12.40;99.90;;;;;;4862371;29;20247;-50
2023/10/22 04:42:04;;;;;;;19.87;18.57;;;12.50;99.90;;;;;;4844042;29;20432;-52
2023/10/22 04:44:30;;;;;;;19.97;18.67;;;12.50;99.90;;;;;;4862937;29;20510;-50
2023/10/22 04:46:56;;;;;;;19.83;18.47;;;12.50;99.90;;;;;;4852775;29;20466;-51
2023/10/22 04:49:21;;;;;;;19.57;18.27;;;12.50;99.90;;;;;;4848135;29;20199;-51
2023/10/22 04:51:47;;;;;;;19.87;18.57;;;12.50;99.90;;;;;;4864634;29;20608;-49
2023/10/22 04:54:13;;;;;;;20.03;18.67;;;12.60;99.90;;;;;;4863075;29;20965;-52
2023/10/22 04:56:38;;;;;;;21.17;19.47;;;12.60;99.90;;;;;;4854670;29;20191;-47
2023/10/22 04:59:04;;;;;;;20.53;18.93;;;12.60;99.90;;;;;;4859048;29;20499;-45
2023/10/22 05:01:30;;;;;;;20.70;19.33;;;12.60;99.90;;;;;;4854064;29;20185;-45
2023/10/22 05:03:55;;;;;;;19.23;18.03;;;12.60;99.90;;;;;;4858355;29;20662;-49
2023/10/22 05:06:21;;;;;;;20.00;18.50;;;12.60;99.90;;;;;;4856377;29;20311;-52
2023/10/22 05:08:47;;;;;;;20.30;19.00;;;12.60;99.90;;;;;;4865444;29;20555;-48
2023/10/22 05:11:13;;;;;;;19.93;18.60;;;12.60;99.90;;;;;;4852068;29;20240;-48
2023/10/22 05:13:39;;;;;;;19.53;18.33;;;12.60;99.90;;;;;;4858712;29;20279;-48
2023/10/22 05:16:05;;;;;;;19.87;18.57;;;12.60;99.90;;;;;;4859803;29;21105;-49
2023/10/22 05:18:31;;;;;;;19.93;18.43;;;12.60;99.90;;;;;;4863570;29;20195;-48
2023/10/22 05:21:04;;;;;;;19.90;18.50;;;12.60;99.90;;;;;;4860331;29;20784;-45
2023/10/22 05:23:30;;;;;;;19.43;18.13;;;12.70;99.90;;;;;;4851786;29;20459;-48
2023/10/22 05:26:07;;;;;;;18.80;17.60;;;12.60;99.90;;;;;;4856282;29;20428;-47
2023/10/22 05:28:33;;;;;;;19.43;18.23;;;12.60;99.90;;;;;;4859790;29;20966;-46
2023/10/22 05:30:58;;;;;;;19.53;18.27;;;12.60;99.90;;;;;;4866020;29;20446;-51
2023/10/22 05:33:24;;;;;;;19.00;17.83;;;12.60;99.90;;;;;;4837416;29;20209;-52
2023/10/22 05:35:50;;;;;;;18.77;17.57;;;12.60;99.90;;;;;;4863420;29;20204;-48
2023/10/22 05:38:15;;;;;;;18.40;17.23;;;12.60;99.90;;;;;;4865765;29;20200;-49
2023/10/22 05:40:41;;;;;;;18.00;16.90;;;12.60;99.90;;;;;;4863867;29;20217;-46
2023/10/22 05:43:07;;;;;;;18.87;17.67;;;12.60;99.90;;;;;;4852324;29;20560;-49
2023/10/22 05:45:32;;;;;;;18.10;17.00;;;12.60;99.90;;;;;;4863795;29;20228;-49
2023/10/22 05:47:59;;;;;;;18.50;17.40;;;12.60;99.90;;;;;;4863788;29;20200;-48
2023/10/22 05:50:25;;;;;;;18.37;17.17;;;12.60;99.90;;;;;;4863539;29;20184;-48
2023/10/22 05:52:51;;;;;;;17.50;16.40;;;12.50;99.90;;;;;;4851600;29;20444;-50
2023/10/22 05:55:18;;;;;;;19.00;17.70;;;12.50;99.90;;;;;;4860460;29;20456;-49
2023/10/22 05:57:45;;;;;;;17.83;16.73;;;12.50;99.90;;;;;;4862306;29;20262;-51
2023/10/22 06:00:11;;;;;;;18.20;17.10;;;12.50;99.90;;;;;;4867653;29;20472;-51
2023/10/22 06:02:37;;;;;;;19.23;17.93;;;12.50;99.90;;;;;;4853869;29;20429;-46
2023/10/22 06:05:04;;;;;;;18.20;17.10;;;12.40;99.90;;;;;;4855725;29;20787;-46
2023/10/22 06:07:30;;;;;;;18.10;17.00;;;12.40;99.90;;;;;;4854975;29;20520;-46
2023/10/22 06:09:55;;;;;;;17.90;16.80;;;12.40;99.90;;;;;;4852837;29;20451;-52
2023/10/22 06:12:21;;;;;;;17.70;16.60;;;12.40;99.90;;;;;;4852686;29;20248;-49
2023/10/22 06:14:46;;;;;;;17.70;16.50;;;12.40;99.90;;;;;;4854478;29;20195;-50
2023/10/22 06:17:12;;;;;;;18.43;17.33;;;12.40;99.90;;;;;;4854699;29;20195;-51
2023/10/22 06:19:38;;;;;;;17.27;16.17;;;12.50;99.90;;;;;;4867714;29;20317;-46
2023/10/22 06:22:04;;;;;;;17.07;16.07;;;12.50;99.90;;;;;;4849230;29;20563;-49
2023/10/22 06:24:30;;;;;;;18.00;16.80;;;12.50;99.90;;;;;;4860486;29;20605;-49
2023/10/22 06:26:55;;;;;;;19.23;17.93;;;12.50;99.90;;;;;;4860481;29;20185;-45
2023/10/22 06:29:21;;;;;;;18.20;17.00;;;12.50;99.90;;;;;;4867160;29;20199;-48
2023/10/22 06:31:46;;;;;;;19.70;18.27;;;12.50;99.90;;;;;;4862900;29;20296;-48
2023/10/22 06:34:12;;;;;;;19.43;18.10;;;12.40;99.90;;;;;;4860745;29;20688;-47
2023/10/22 06:36:38;;;;;;;19.53;18.13;;;12.40;99.90;;;;;;4860724;29;20209;-52
2023/10/22 06:39:03;;;;;;;20.17;18.87;;;12.50;99.90;;;;;;4863280;29;20213;-49
2023/10/22 06:41:29;;;;;;;19.00;17.70;;;12.50;99.90;;;;;;4846176;29;20200;-49
2023/10/22 06:43:55;;;;;;;19.50;18.10;;;12.50;99.90;;;;;;4852962;29;20192;-47
2023/10/22 06:46:21;;;;;;;19.10;17.90;;;12.60;99.90;;;;;;4853259;29;20614;-52
2023/10/22 06:48:48;;;;;;;20.60;18.90;;;12.60;99.90;;;;;;4867812;29;20180;-50
2023/10/22 06:51:15;;;;;;;20.27;18.87;;;12.60;99.90;;;;;;4858646;29;21323;-48
2023/10/22 06:53:43;;;;;;;21.13;19.70;;;12.60;99.90;;;;;;4859625;29;20464;-49
2023/10/22 06:56:09;;;;;;;20.87;19.37;;;12.60;99.90;;;;;;4847196;29;20428;-53
2023/10/22 06:58:36;;;;;;;20.97;19.47;;;12.60;99.90;;;;;;4857823;29;20469;-50
2023/10/22 07:01:09;;;;;;;20.73;19.33;;;12.60;99.90;;;;;;4868273;29;20482;-47
2023/10/22 07:03:42;;;;;;;21.00;19.50;;;12.60;99.90;;;;;;4857982;29;21332;-51
2023/10/22 07:06:07;;;;;;;22.13;20.53;;;12.70;99.90;;;;;;4864967;29;20472;-47
2023/10/22 07:08:33;;;;;;;23.60;21.70;;;12.70;99.90;;;;;;4860277;29;20535;-45
2023/10/22 07:10:59;;;;;;;19.87;18.53;;;12.80;99.90;;;;;;4856034;29;20252;-48
2023/10/22 07:13:25;;;;;;;21.50;19.97;;;12.80;99.90;;;;;;4856039;29;20227;-51
2023/10/22 07:15:52;;;;;;;20.53;18.90;;;12.90;99.90;;;;;;4851290;29;20734;-49
2023/10/22 07:18:18;;;;;;;21.50;19.90;;;12.90;99.90;;;;;;4854821;29;21103;-50
2023/10/22 07:20:43;;;;;;;20.67;19.30;;;13.00;99.90;;;;;;4859198;29;20477;-49
2023/10/22 07:23:09;;;;;;;21.00;19.30;;;13.00;99.90;;;;;;4853229;29;20532;-50
2023/10/22 07:25:36;;;;;;;20.37;18.97;;;13.10;99.90;;;;;;4852462;29;20695;-50
2023/10/22 07:28:02;;;;;;;19.87;18.50;;;13.10;99.90;;;;;;4851777;29;20188;-48
2023/10/22 07:30:31;;;;;;;19.30;18.00;;;13.20;99.90;;;;;;4853904;29;20951;-49
2023/10/22 07:32:58;;;;;;;19.00;17.70;;;13.20;99.90;;;;;;4834390;29;20461;-49
2023/10/22 07:35:23;;;;;;;17.17;16.07;;;13.30;99.90;;;;;;4842958;29;20537;-48
2023/10/22 07:37:49;;;;;;;18.10;16.90;;;13.40;99.90;;;;;;4850529;29;20441;-47
2023/10/22 07:40:17;;;;;;;18.87;17.57;;;13.50;99.90;;;;;;4851384;29;20804;-46
2023/10/22 07:42:48;;;;;;;17.70;16.40;;;13.50;99.90;;;;;;4850483;29;20350;-47
2023/10/22 07:45:14;;;;;;;17.13;16.03;;;13.60;99.90;;;;;;4833507;29;20441;-45
2023/10/22 07:47:39;;;;;;;17.77;16.57;;;13.60;99.90;;;;;;4852777;29;21042;-50
2023/10/22 07:50:06;;;;;;;17.33;16.23;;;13.80;99.90;;;;;;4851472;29;20449;-46
2023/10/22 07:52:33;;;;;;;16.57;15.57;;;13.80;99.90;;;;;;4852080;29;20206;-45
2023/10/22 07:54:59;;;;;;;16.73;15.57;;;13.90;99.90;;;;;;4851246;29;20477;-48
2023/10/22 07:57:28;;;;;;;16.37;15.37;;;14.00;99.90;;;;;;4857682;29;21320;-48
2023/10/22 07:59:56;;;;;;;15.77;14.70;;;14.00;99.90;;;;;;4856008;29;20481;-46
2023/10/22 08:02:23;;;;;;;15.90;14.90;;;14.10;99.90;;;;;;4853799;29;20435;-43
2023/10/22 08:04:48;;;;;;;15.50;14.50;;;14.00;99.90;;;;;;4849151;29;20425;-40
2023/10/22 08:07:17;;;;;;;15.27;14.37;;;14.10;99.90;;;;;;4851882;29;20448;-42
2023/10/22 08:09:43;;;;;;;15.30;14.40;;;14.20;99.90;;;;;;4860325;29;20960;-41
2023/10/22 08:12:09;;;;;;;14.27;13.57;;;14.50;99.90;;;;;;4850078;29;20493;-40
2023/10/22 08:14:34;;;;;;;15.03;14.23;;;14.80;99.90;;;;;;4850414;29;20223;-40
2023/10/22 08:17:00;;;;;;;15.17;14.27;;;15.10;99.90;;;;;;4847983;29;20233;-41
2023/10/22 08:19:26;;;;;;;15.10;14.30;;;15.50;99.90;;;;;;4847091;29;20211;-40
2023/10/22 08:21:52;;;;;;;15.50;14.60;;;15.90;99.90;;;;;;4848281;29;21413;-43
2023/10/22 08:24:17;;;;;;;15.83;14.93;;;16.30;99.90;;;;;;4845719;29;20474;-45
2023/10/22 08:26:43;;;;;;;14.63;13.80;;;16.90;99.90;;;;;;4861532;29;20192;-41
2023/10/22 08:29:08;;;;;;;13.20;12.47;;;17.30;77.60;;;;;;4854582;29;20207;-43
2023/10/22 08:31:34;;;;;;;11.50;11.00;;;17.80;30.50;;;;;;4862295;29;20200;-42
2023/10/22 08:34:01;;;;;;;11.93;11.33;;;18.00;1.00;;;;;;4850770;29;20200;-44
2023/10/22 08:36:26;;;;;;;12.60;12.00;;;18.30;1.00;;;;;;4851156;29;20193;-44
2023/10/22 08:38:52;;;;;;;12.00;11.40;;;18.50;1.00;;;;;;4852453;29;20421;-43
2023/10/22 08:41:21;;;;;;;12.23;11.60;;;18.70;1.00;;;;;;4834539;29;20297;-40
2023/10/22 08:43:48;;;;;;;11.60;11.00;;;19.20;1.00;;;;;;4845865;29;20338;-41
2023/10/22 08:46:14;;;;;;;13.10;12.40;;;19.40;1.00;;;;;;4847525;29;20449;-42
2023/10/22 08:48:40;;;;;;;12.60;11.90;;;19.30;1.00;;;;;;4853843;29;20528;-44
2023/10/22 08:51:08;;;;;;;12.90;12.20;;;19.40;1.00;;;;;;4852559;29;20459;-41
2023/10/22 08:53:34;;;;;;;11.90;11.40;;;19.40;1.00;;;;;;4846944;29;20635;-40
2023/10/22 08:56:01;;;;;;;11.30;10.80;;;19.40;1.00;;;;;;4851142;29;20445;-40
2023/10/22 08:58:27;;;;;;;11.93;11.33;;;19.20;99.90;;;;;;4850140;29;20456;-41
2023/10/22 09:00:53;;;;;;;13.27;12.17;;;19.80;99.90;;;;;;4848968;29;20532;-42
2023/10/22 09:03:20;;;;;;;11.93;11.43;;;20.30;1.00;;;;;;4834790;29;20575;-39
2023/10/22 09:05:47;;;;;;;11.83;11.33;;;20.60;1.00;;;;;;4848065;29;20196;-41
2023/10/22 09:08:14;;;;;;;12.87;12.27;;;19.80;99.90;;;;;;4850156;29;20602;-40
2023/10/22 09:10:40;;;;;;;11.93;11.33;;;19.80;1.00;;;;;;4852658;29;20950;-43
2023/10/22 09:13:17;;;;;;;12.77;12.07;;;20.10;99.90;;;;;;4849575;29;20461;-44
2023/10/22 09:15:52;;;;;;;11.30;10.80;;;19.90;82.70;;;;;;4863716;29;20448;-42
2023/10/22 09:18:18;;;;;;;12.30;11.80;;;20.00;99.90;;;;;;4849163;29;20447;-41
2023/10/22 09:20:45;;;;;;;11.60;11.00;;;20.00;1.00;;;;;;4853410;29;21571;-42
2023/10/22 09:23:21;;;;;;;11.90;11.30;;;20.20;99.90;;;;;;4860055;29;20490;-42
2023/10/22 09:25:57;;;;;;;11.23;10.73;;;19.80;99.90;;;;;;4866650;29;20479;-40
2023/10/22 09:28:27;;;;;;;11.43;10.93;;;19.70;99.90;;;;;;4852940;29;20454;-41
2023/10/22 09:31:13;;;;;;;12.03;11.40;;;19.80;1.00;;;;;;4856202;29;20445;-39
2023/10/22 09:33:42;;;;;;;11.77;11.17;;;20.20;1.00;;;;;;4848781;29;20461;-40
2023/10/22 09:36:12;;;;;;;12.30;11.70;;;20.90;99.90;;;;;;4859393;29;20524;-42
2023/10/22 09:38:53;;;;;;;12.40;11.70;;;21.40;99.90;;;;;;4864851;29;20486;-39
2023/10/22 09:41:26;;;;;;;11.37;10.80;;;21.50;90.80;;;;;;4852833;29;20479;-42
2023/10/22 09:43:53;;;;;;;12.07;11.40;;;21.50;1.00;;;;;;4854091;29;20449;-40
2023/10/22 09:46:19;;;;;;;12.60;11.90;;;21.50;95.80;;;;;;4855417;29;21555;-41
2023/10/22 09:48:49;;;;;;;12.13;11.53;;;22.00;7.80;;;;;;4836624;29;20456;-41
2023/10/22 09:51:17;;;;;;;11.87;11.27;;;21.70;1.00;;;;;;4852576;29;20499;-39
2023/10/22 09:53:52;;;;;;;11.97;11.27;;;21.00;1.00;;;;;;4853294;29;20505;-40
2023/10/22 09:56:21;;;;;;;11.60;11.00;;;21.70;55.10;;;;;;4848714;29;20559;-40
2023/10/22 09:58:48;;;;;;;12.00;11.47;;;22.30;1.00;;;;;;4839679;29;20449;-41
2023/10/22 10:01:15;;;;;;;10.90;10.47;;;22.40;1.00;;;;;;4852461;29;20452;-40
2023/10/22 10:03:41;;;;;;;12.10;11.40;;;22.30;1.00;;;;;;4860734;29;20484;-41
2023/10/22 10:06:08;;;;;;;12.00;11.30;;;22.50;1.00;;;;;;4854621;29;20445;-43
2023/10/22 10:08:40;;;;;;;11.97;11.27;;;22.70;1.00;;;;;;4857121;29;20536;-45
2023/10/22 10:11:08;;;;;;;12.00;11.40;;;22.70;1.00;;;;;;4853831;29;21728;-40
2023/10/22 10:13:37;;;;;;;11.70;11.00;;;23.10;1.00;;;;;;4862396;29;20441;-40
2023/10/22 10:16:05;;;;;;;12.17;11.57;;;22.80;99.90;;;;;;4855127;29;20444;-39
2023/10/22 10:19:03;;;;;;;12.77;11.97;;;22.20;99.90;;;;;;4856410;29;20520;-39
2023/10/22 10:21:34;;;;;;;11.20;10.70;;;22.80;1.00;;;;;;4851151;29;20452;-40
2023/10/22 10:24:20;;;;;;;12.17;11.47;;;22.10;99.90;;;;;;4856322;29;20453;-40
2023/10/22 10:26:47;;;;;;;12.00;11.40;;;21.60;99.90;;;;;;4865773;29;20439;-40
2023/10/22 10:29:18;;;;;;;11.83;11.23;;;21.60;1.00;;;;;;4861868;29;21401;-42
2023/10/22 10:31:45;;;;;;;11.40;10.90;;;21.60;99.90;;;;;;4855471;29;20496;-42
2023/10/22 10:34:40;;;;;;;11.93;11.33;;;21.80;1.00;;;;;;4862681;29;20429;-42
2023/10/22 10:37:13;;;;;;;11.63;10.93;;;22.40;99.90;;;;;;4845950;29;20521;-40
2023/10/22 10:39:42;;;;;;;11.40;10.80;;;22.30;99.90;;;;;;4849368;29;21397;-40
2023/10/22 10:42:32;;;;;;;12.23;11.63;;;22.20;99.90;;;;;;4851130;29;20547;-41
2023/10/22 10:44:58;;;;;;;12.07;11.47;;;22.80;99.90;;;;;;4851799;29;20429;-49
2023/10/22 10:47:33;;;;;;;11.70;11.00;;;22.70;99.90;;;;;;4854241;29;20460;-46
2023/10/22 10:50:12;;;;;;;11.67;11.10;;;23.30;99.90;;;;;;4850578;29;20831;-51
2023/10/22 10:52:37;;;;;;;12.10;11.50;;;23.90;99.90;;;;;;4858897;29;20448;-50
2023/10/22 10:55:15;;;;;;;11.50;10.90;;;24.20;99.90;;;;;;4859610;29;20444;-48
2023/10/22 10:57:49;;;;;;;11.43;10.83;;;25.10;99.90;;;;;;4851615;29;20188;-47
2023/10/22 11:00:29;;;;;;;11.63;11.10;;;24.70;99.90;;;;;;4853179;29;20477;-48
2023/10/22 11:03:04;;;;;;;11.93;11.43;;;25.10;99.90;;;;;;4852253;29;20435;-46
2023/10/22 11:05:39;;;;;;;11.37;10.70;;;24.80;99.90;;;;;;4851533;29;20432;-50
2023/10/22 11:08:18;;;;;;;11.90;11.30;;;23.80;99.90;;;;;;4853310;29;21403;-49
2023/10/22 11:10:45;;;;;;;12.13;11.43;;;24.00;99.90;;;;;;4851911;29;20449;-49
2023/10/22 11:13:11;;;;;;;10.93;10.43;;;23.30;99.90;;;;;;4854181;29;20445;-47
2023/10/22 11:15:38;;;;;;;11.97;11.27;;;22.80;99.90;;;;;;4860106;29;20790;-48
2023/10/22 11:18:09;;;;;;;12.30;11.70;;;22.60;99.90;;;;;;4858208;29;20424;-50
2023/10/22 11:20:36;;;;;;;12.20;11.60;;;22.40;99.90;;;;;;4867809;29;20487;-49
2023/10/22 11:23:02;;;;;;;11.70;11.10;;;22.10;99.90;;;;;;4852551;29;20530;-48
2023/10/22 11:25:28;;;;;;;12.13;11.43;;;22.20;99.90;;;;;;4852995;29;20441;-48
2023/10/22 11:27:54;;;;;;;11.30;10.80;;;22.70;99.90;;;;;;4853155;29;20199;-50
2023/10/22 11:30:41;;;;;;;10.67;10.10;;;22.70;99.90;;;;;;4855664;29;20468;-48
2023/10/22 11:33:11;;;;;;;11.00;10.40;;;22.80;99.90;;;;;;4852772;29;20216;-52
2023/10/22 11:35:37;;;;;;;11.70;11.00;;;22.50;99.90;;;;;;4851172;29;20832;-49
2023/10/22 11:38:04;;;;;;;11.30;10.60;;;22.30;99.90;;;;;;4853213;29;20438;-48
2023/10/22 11:40:31;;;;;;;12.10;11.00;;;22.10;99.90;;;;;;4852513;29;20504;-47
2023/10/22 11:43:03;;;;;;;10.50;10.00;;;22.10;99.90;;;;;;4851849;29;20529;-51
2023/10/22 11:45:36;;;;;;;11.60;10.90;;;21.90;99.90;;;;;;4837058;29;21150;-47
2023/10/22 11:48:16;;;;;;;11.47;10.87;;;21.40;99.90;;;;;;4853709;29;21014;-50
2023/10/22 11:50:46;;;;;;;11.87;11.27;;;22.20;99.90;;;;;;4856352;29;20790;-47
2023/10/22 11:53:11;;;;;;;11.93;11.30;;;22.40;99.90;;;;;;4852996;29;20452;-46
2023/10/22 11:55:37;;;;;;;11.80;11.20;;;22.70;99.90;;;;;;4849637;29;21292;-48
2023/10/22 11:58:04;;;;;;;12.20;11.50;;;23.00;99.90;;;;;;4850884;29;20648;-48
2023/10/22 12:00:29;;;;;;;11.27;10.67;;;22.70;99.90;;;;;;4853579;29;20311;-48
2023/10/22 12:02:55;;;;;;;10.00;9.50;;;22.60;99.90;;;;;;4850459;29;20424;-48
2023/10/22 12:05:21;;;;;;;10.90;10.10;;;22.40;99.90;;;;;;4850083;29;20554;-48
2023/10/22 12:07:47;;;;;;;10.97;10.37;;;22.10;99.90;;;;;;4851673;29;20195;-50
2023/10/22 12:10:12;;;;;;;11.47;10.87;;;22.20;99.90;;;;;;4851513;29;20192;-47
2023/10/22 12:12:38;;;;;;;11.67;11.07;;;22.50;99.90;;;;;;4849543;29;20251;-48
2023/10/22 12:15:04;;;;;;;10.87;10.27;;;22.80;99.90;;;;;;4848454;29;20196;-45
2023/10/22 12:17:31;;;;;;;11.40;10.80;;;23.40;99.90;;;;;;4851961;29;20197;-51
2023/10/22 12:19:57;;;;;;;11.47;10.90;;;23.40;99.90;;;;;;4852162;29;20475;-43
2023/10/22 12:22:22;;;;;;;11.87;11.37;;;23.20;99.90;;;;;;4850274;29;20449;-46
2023/10/22 12:24:50;;;;;;;11.77;11.20;;;22.80;99.90;;;;;;4850826;29;20203;-42
2023/10/22 12:27:16;;;;;;;11.50;11.00;;;22.30;99.90;;;;;;4843431;29;20187;-49
2023/10/22 12:29:42;;;;;;;12.40;11.80;;;21.50;99.90;;;;;;4851358;29;20825;-49